Time;durP1;ratioP1;P1;durP2;ratioP2;P2;SDS_P1;SDS_P2;PMS_P1;PMS_P2;Temp;Humidity;BMP_temperature;BMP_pressure;BME280_temperature;BME280_humidity;BME280_pressure;Samples;Min_cycle;Max_cycle;Signal;HPM_P1;HPM_P2
2022/01/10 00:00:54;;;;;;;12.93;5.90;;;3.70;99.90;;;;;;4982653;28;20202;-67
2022/01/10 00:03:23;;;;;;;9.77;5.00;;;3.80;99.90;;;;;;4985639;28;20203;-71
2022/01/10 00:05:50;;;;;;;14.00;5.57;;;3.90;99.90;;;;;;4987035;28;20600;-69
2022/01/10 00:08:17;;;;;;;11.23;4.70;;;4.10;99.90;;;;;;4989201;28;20273;-72
2022/01/10 00:10:44;;;;;;;12.07;5.70;;;4.20;99.90;;;;;;4987887;28;20192;-69
2022/01/10 00:13:11;;;;;;;9.73;5.17;;;4.30;99.90;;;;;;4985004;28;20202;-69
2022/01/10 00:15:38;;;;;;;14.50;5.60;;;4.20;99.90;;;;;;4979700;28;20221;-69
2022/01/10 00:18:05;;;;;;;11.77;4.77;;;4.20;99.90;;;;;;4988167;28;20214;-69
2022/01/10 00:20:32;;;;;;;9.70;4.83;;;4.20;99.90;;;;;;4992197;28;20199;-69
2022/01/10 00:22:58;;;;;;;11.50;4.50;;;4.10;99.90;;;;;;4989426;28;20194;-69
2022/01/10 00:25:27;;;;;;;12.07;4.87;;;4.20;99.90;;;;;;4985621;28;20227;-71
2022/01/10 00:27:54;;;;;;;9.87;4.93;;;4.20;99.90;;;;;;4986585;28;20228;-72
2022/01/10 00:30:23;;;;;;;9.63;4.70;;;4.10;99.90;;;;;;4988862;28;20674;-69
2022/01/10 00:32:50;;;;;;;10.17;4.70;;;4.00;99.90;;;;;;4989115;28;20435;-71
2022/01/10 00:35:18;;;;;;;14.30;4.70;;;4.30;99.90;;;;;;4986161;28;20223;-69
2022/01/10 00:37:45;;;;;;;14.73;4.53;;;4.20;99.90;;;;;;4984133;28;20210;-69
2022/01/10 00:40:15;;;;;;;7.97;4.13;;;4.20;99.90;;;;;;4985828;28;20293;-69
2022/01/10 00:42:43;;;;;;;11.90;4.03;;;4.20;99.90;;;;;;4987777;28;20198;-69
2022/01/10 00:45:17;;;;;;;9.53;4.30;;;4.10;99.90;;;;;;4987285;28;20229;-70
2022/01/10 00:47:48;;;;;;;9.37;4.17;;;4.10;99.90;;;;;;4988004;28;20203;-70
2022/01/10 00:50:16;;;;;;;8.57;4.20;;;4.10;99.90;;;;;;4992573;28;20201;-70
2022/01/10 00:52:43;;;;;;;8.37;4.13;;;4.10;99.90;;;;;;4982480;28;20218;-72
2022/01/10 00:55:11;;;;;;;9.77;4.20;;;4.10;99.90;;;;;;4986300;28;20735;-71
2022/01/10 00:57:38;;;;;;;8.83;4.30;;;4.20;99.90;;;;;;4985156;28;20208;-69
2022/01/10 01:00:07;;;;;;;9.90;3.87;;;4.20;99.90;;;;;;4990958;28;20243;-69
2022/01/10 01:02:33;;;;;;;11.30;4.50;;;4.20;99.90;;;;;;4979090;28;20278;-70
2022/01/10 01:05:04;;;;;;;8.20;4.40;;;4.20;99.90;;;;;;4987369;28;20234;-69
2022/01/10 01:07:31;;;;;;;9.80;4.10;;;4.20;99.90;;;;;;4985321;28;20214;-69
2022/01/10 01:15:31;;;;;;;9.73;4.37;;;4.30;99.90;;;;;;4984720;28;20230;-72
2022/01/10 01:25:58;;;;;;;11.70;4.33;;;4.20;99.90;;;;;;4983993;28;20234;-70
2022/01/10 01:28:25;;;;;;;11.80;4.00;;;4.10;99.90;;;;;;4990033;28;20220;-68
2022/01/10 01:30:52;;;;;;;13.80;4.43;;;4.10;99.90;;;;;;4987720;28;20259;-69
2022/01/10 01:33:19;;;;;;;12.33;4.40;;;4.10;99.90;;;;;;4989025;28;20211;-69
2022/01/10 01:35:47;;;;;;;10.20;4.30;;;4.10;99.90;;;;;;4990246;28;20231;-69
2022/01/10 01:38:14;;;;;;;10.03;4.40;;;4.20;99.90;;;;;;4983212;28;20197;-71
2022/01/10 01:40:44;;;;;;;6.87;4.00;;;4.30;99.90;;;;;;4990493;28;20204;-69
2022/01/10 01:43:11;;;;;;;10.33;4.47;;;4.30;99.90;;;;;;4990305;28;20215;-69
2022/01/10 01:45:41;;;;;;;9.07;4.23;;;4.20;99.90;;;;;;4989475;28;20227;-72
2022/01/10 01:48:08;;;;;;;8.20;4.00;;;4.20;99.90;;;;;;4988028;28;20199;-70
2022/01/10 01:50:36;;;;;;;10.00;3.73;;;4.30;99.90;;;;;;4987850;28;20208;-69
2022/01/10 01:53:04;;;;;;;6.43;4.00;;;4.30;99.90;;;;;;4989913;28;20208;-69
2022/01/10 01:55:31;;;;;;;9.47;4.23;;;4.30;99.90;;;;;;4989695;28;20699;-70
2022/01/10 01:57:59;;;;;;;12.37;4.00;;;4.20;99.90;;;;;;4986341;28;20203;-71
2022/01/10 02:00:26;;;;;;;8.47;4.53;;;4.30;99.90;;;;;;4987328;28;20203;-71
2022/01/10 02:02:54;;;;;;;8.33;4.27;;;4.40;99.90;;;;;;4990955;28;20205;-71
2022/01/10 02:05:21;;;;;;;7.67;4.30;;;4.30;99.90;;;;;;4983337;28;20309;-70
2022/01/10 02:07:48;;;;;;;6.57;3.90;;;4.30;99.90;;;;;;4987700;28;20564;-69
2022/01/10 02:10:15;;;;;;;7.57;3.80;;;4.20;99.90;;;;;;4987755;28;20256;-70
2022/01/10 02:12:42;;;;;;;16.20;4.53;;;4.20;99.90;;;;;;4988357;28;20198;-71
2022/01/10 02:15:21;;;;;;;10.50;4.07;;;4.20;99.90;;;;;;4988105;28;20220;-70
2022/01/10 02:17:49;;;;;;;8.40;4.07;;;4.10;99.90;;;;;;4985608;28;20196;-69
2022/01/10 02:20:15;;;;;;;6.63;3.70;;;4.20;99.90;;;;;;4982716;28;20587;-69
2022/01/10 02:22:42;;;;;;;9.23;3.93;;;4.00;99.90;;;;;;4988511;28;20694;-70
2022/01/10 02:25:09;;;;;;;7.83;4.00;;;4.10;99.90;;;;;;4986139;28;20232;-71
2022/01/10 02:27:36;;;;;;;8.43;3.60;;;4.10;99.90;;;;;;4984254;28;20205;-69
2022/01/10 02:30:03;;;;;;;9.67;4.30;;;4.00;99.90;;;;;;4988799;28;20257;-69
2022/01/10 02:32:34;;;;;;;10.87;4.20;;;4.00;99.90;;;;;;4989299;28;20260;-70
2022/01/10 02:35:00;;;;;;;9.07;4.00;;;4.10;99.90;;;;;;4977551;28;20224;-69
2022/01/10 02:37:34;;;;;;;9.57;4.00;;;4.10;99.90;;;;;;4989697;28;20679;-69
2022/01/10 02:40:07;;;;;;;13.57;4.67;;;4.00;99.90;;;;;;4986564;28;20199;-69
2022/01/10 02:42:34;;;;;;;8.50;4.37;;;4.10;99.90;;;;;;4988514;28;20255;-67
2022/01/10 02:45:01;;;;;;;10.53;4.80;;;4.20;99.90;;;;;;4986904;28;20231;-69
2022/01/10 02:47:29;;;;;;;9.50;4.90;;;4.30;99.90;;;;;;4990620;28;20189;-69
2022/01/10 02:49:56;;;;;;;11.77;4.70;;;4.20;99.90;;;;;;4980938;28;20254;-68
2022/01/10 02:52:22;;;;;;;10.13;4.90;;;4.20;99.90;;;;;;4974511;28;20246;-71
2022/01/10 02:54:49;;;;;;;10.37;4.80;;;4.40;99.90;;;;;;4982278;28;20222;-70
2022/01/10 02:57:16;;;;;;;7.40;4.77;;;4.30;99.90;;;;;;4987608;28;20196;-69
2022/01/10 02:59:42;;;;;;;10.33;4.47;;;4.30;99.90;;;;;;4981508;28;20216;-70
2022/01/10 03:02:10;;;;;;;9.43;4.47;;;4.40;99.90;;;;;;4980410;28;20203;-69
2022/01/10 03:04:37;;;;;;;9.67;4.93;;;4.30;99.90;;;;;;4986651;28;20219;-69
2022/01/10 03:07:04;;;;;;;6.87;4.10;;;4.30;99.90;;;;;;4988077;28;20225;-69
2022/01/10 03:09:31;;;;;;;9.80;4.27;;;4.20;99.90;;;;;;4982772;28;20583;-71
2022/01/10 03:11:57;;;;;;;12.47;4.70;;;4.20;99.90;;;;;;4981557;28;20254;-68
2022/01/10 03:14:24;;;;;;;12.63;4.37;;;4.20;99.90;;;;;;4989979;28;20296;-69
2022/01/10 03:16:51;;;;;;;8.50;4.20;;;4.20;99.90;;;;;;4986700;28;20196;-71
2022/01/10 03:19:17;;;;;;;11.37;4.20;;;4.00;99.90;;;;;;4988644;28;20712;-70
2022/01/10 03:21:44;;;;;;;8.53;4.23;;;3.90;99.90;;;;;;4984098;28;20201;-69
2022/01/10 03:24:11;;;;;;;10.93;4.60;;;3.90;99.90;;;;;;4986788;28;20568;-69
2022/01/10 03:26:37;;;;;;;9.33;4.30;;;3.90;99.90;;;;;;4987086;28;20221;-71
2022/01/10 03:29:04;;;;;;;9.27;4.80;;;3.80;99.90;;;;;;4985037;28;20198;-71
2022/01/10 03:31:30;;;;;;;8.90;4.17;;;3.80;99.90;;;;;;4987093;28;20670;-70
2022/01/10 03:33:57;;;;;;;9.40;4.50;;;3.80;99.90;;;;;;4986316;28;21414;-69
2022/01/10 03:36:24;;;;;;;7.90;4.30;;;3.90;99.90;;;;;;4987158;28;20217;-69
2022/01/10 03:38:50;;;;;;;11.30;4.87;;;3.90;99.90;;;;;;4986867;28;20206;-69
2022/01/10 03:41:17;;;;;;;11.37;4.50;;;4.00;99.90;;;;;;4983634;28;20200;-69
2022/01/10 03:43:44;;;;;;;8.37;4.53;;;4.00;99.90;;;;;;4977833;28;20210;-70
2022/01/10 03:46:11;;;;;;;10.83;4.57;;;4.10;99.90;;;;;;4985563;28;20222;-69
2022/01/10 03:48:37;;;;;;;10.97;4.73;;;4.10;99.90;;;;;;4989530;28;20627;-70
2022/01/10 03:51:04;;;;;;;10.43;4.73;;;4.20;99.90;;;;;;4989596;28;20196;-71
2022/01/10 03:53:31;;;;;;;11.63;4.67;;;4.20;99.90;;;;;;4988463;28;20197;-70
2022/01/10 03:55:57;;;;;;;10.60;4.90;;;4.30;99.90;;;;;;4990457;28;20311;-70
2022/01/10 03:58:24;;;;;;;9.17;4.30;;;4.40;99.90;;;;;;4988809;28;20751;-70
2022/01/10 04:00:51;;;;;;;9.27;5.40;;;4.40;99.90;;;;;;4987956;28;20689;-70
2022/01/10 04:03:18;;;;;;;13.60;5.03;;;4.60;99.90;;;;;;4987039;28;20644;-69
2022/01/10 04:05:44;;;;;;;12.90;5.00;;;4.60;99.90;;;;;;4983309;28;20228;-70
2022/01/10 04:08:12;;;;;;;10.77;4.50;;;4.50;99.90;;;;;;4987093;28;20228;-70
2022/01/10 04:10:39;;;;;;;10.23;4.90;;;4.50;99.90;;;;;;4985002;28;20185;-70
2022/01/10 04:13:06;;;;;;;8.33;4.50;;;4.50;99.90;;;;;;4989229;28;20197;-69
2022/01/10 04:15:33;;;;;;;13.33;4.83;;;4.50;99.90;;;;;;4988427;28;20220;-69
2022/01/10 04:18:01;;;;;;;9.73;4.93;;;4.60;99.90;;;;;;4980849;28;20417;-72
2022/01/10 04:20:28;;;;;;;10.57;4.87;;;4.50;99.90;;;;;;4986168;28;20260;-71
2022/01/10 04:22:55;;;;;;;10.00;4.33;;;4.50;99.90;;;;;;4989398;28;20193;-69
2022/01/10 04:25:22;;;;;;;13.73;5.20;;;4.50;99.90;;;;;;4990581;28;20229;-69
2022/01/10 04:27:48;;;;;;;8.97;5.10;;;4.70;99.90;;;;;;4985565;28;20220;-70
2022/01/10 04:30:15;;;;;;;9.57;4.53;;;4.70;99.90;;;;;;4990395;28;20251;-70
2022/01/10 04:32:43;;;;;;;9.97;4.50;;;4.60;99.90;;;;;;4986666;28;20196;-71
2022/01/10 04:35:11;;;;;;;19.23;4.60;;;4.60;99.90;;;;;;4992163;28;20229;-69
2022/01/10 04:37:38;;;;;;;8.10;4.00;;;4.70;99.90;;;;;;4990776;28;20730;-69
2022/01/10 04:40:07;;;;;;;11.57;4.70;;;4.60;99.90;;;;;;4990231;28;20208;-71
2022/01/10 04:42:34;;;;;;;10.43;4.40;;;4.50;99.90;;;;;;4992150;28;20203;-69
2022/01/10 04:45:01;;;;;;;7.53;4.63;;;4.30;99.90;;;;;;4988921;28;20225;-69
2022/01/10 04:47:27;;;;;;;8.37;4.20;;;4.30;99.90;;;;;;4989297;28;20216;-69
2022/01/10 04:52:28;;;;;;;13.03;4.10;;;3.90;99.90;;;;;;4979887;28;20203;-69
2022/01/10 04:54:55;;;;;;;8.77;4.60;;;3.80;99.90;;;;;;4990167;28;20214;-70
2022/01/10 04:57:22;;;;;;;6.73;4.00;;;3.60;99.90;;;;;;4987580;28;20569;-69
2022/01/10 04:59:49;;;;;;;12.53;4.60;;;3.50;99.90;;;;;;4988092;28;20198;-69
2022/01/10 05:02:15;;;;;;;11.07;4.17;;;3.30;99.90;;;;;;4989908;28;20279;-69
2022/01/10 05:04:42;;;;;;;10.60;4.60;;;3.50;99.90;;;;;;4988688;28;20596;-69
2022/01/10 05:07:09;;;;;;;9.97;4.60;;;3.30;99.90;;;;;;4985427;28;20222;-69
2022/01/10 05:09:36;;;;;;;9.83;4.37;;;3.20;99.90;;;;;;4990732;28;20205;-69
2022/01/10 05:12:02;;;;;;;11.93;4.63;;;3.30;99.90;;;;;;4991102;28;20212;-70
2022/01/10 05:14:29;;;;;;;10.83;4.90;;;3.00;99.90;;;;;;4988252;28;20224;-71
2022/01/10 05:16:56;;;;;;;8.73;4.00;;;2.90;99.90;;;;;;4986226;28;20205;-67
2022/01/10 05:19:23;;;;;;;11.20;4.07;;;2.90;99.90;;;;;;4978720;28;20209;-69
2022/01/10 05:21:54;;;;;;;10.40;4.13;;;2.90;99.90;;;;;;4988130;28;20203;-68
2022/01/10 05:24:20;;;;;;;10.13;5.00;;;2.90;99.90;;;;;;4992467;28;20208;-69
2022/01/10 05:26:48;;;;;;;9.70;4.43;;;3.00;99.90;;;;;;4985888;28;20217;-69
2022/01/10 05:29:16;;;;;;;12.67;4.97;;;3.00;99.90;;;;;;4990120;28;20193;-71
2022/01/10 05:31:42;;;;;;;11.23;4.63;;;3.00;99.90;;;;;;4987208;28;20205;-71
2022/01/10 05:34:09;;;;;;;17.83;4.80;;;2.90;99.90;;;;;;4988179;28;20204;-70
2022/01/10 05:36:36;;;;;;;10.53;4.07;;;2.90;99.90;;;;;;4980568;28;20208;-69
2022/01/10 05:39:03;;;;;;;11.90;4.07;;;2.80;99.90;;;;;;4989892;28;20201;-69
2022/01/10 05:41:31;;;;;;;9.47;3.87;;;2.80;99.90;;;;;;4983096;28;20662;-71
2022/01/10 05:43:58;;;;;;;10.07;4.90;;;2.60;99.90;;;;;;4983967;28;20212;-69
2022/01/10 05:46:25;;;;;;;6.67;3.80;;;2.50;99.90;;;;;;4990568;28;20228;-69
2022/01/10 05:48:54;;;;;;;9.20;4.30;;;2.40;99.90;;;;;;4986235;28;20871;-69
2022/01/10 05:51:20;;;;;;;9.97;4.57;;;2.60;99.90;;;;;;4988576;28;20700;-69
2022/01/10 05:53:48;;;;;;;10.50;4.43;;;2.80;99.90;;;;;;4979488;28;20192;-69
2022/01/10 05:56:15;;;;;;;12.03;5.10;;;2.80;99.90;;;;;;4989935;28;20263;-70
2022/01/10 05:58:42;;;;;;;9.47;4.80;;;2.80;99.90;;;;;;4985514;28;20204;-71
2022/01/10 06:01:09;;;;;;;11.97;4.17;;;2.80;99.90;;;;;;4986536;28;20233;-69
2022/01/10 06:03:35;;;;;;;9.70;4.20;;;2.80;99.90;;;;;;4985273;28;20264;-69
2022/01/10 06:06:02;;;;;;;9.80;4.30;;;2.60;99.90;;;;;;4986837;28;20272;-71
2022/01/10 06:08:29;;;;;;;8.47;4.77;;;2.70;99.90;;;;;;4985666;28;20586;-70
2022/01/10 06:10:55;;;;;;;7.23;4.10;;;2.60;99.90;;;;;;4986039;28;20579;-69
2022/01/10 06:13:22;;;;;;;9.97;5.00;;;2.70;99.90;;;;;;4990517;28;20193;-69
2022/01/10 06:15:48;;;;;;;12.50;4.87;;;2.70;99.90;;;;;;4987100;28;20225;-69
2022/01/10 06:18:15;;;;;;;8.80;4.60;;;2.70;99.90;;;;;;4984499;28;20585;-71
2022/01/10 06:20:42;;;;;;;9.93;4.77;;;2.70;99.90;;;;;;4987198;28;20253;-70
2022/01/10 06:23:09;;;;;;;15.20;4.90;;;2.70;99.90;;;;;;4984722;28;20201;-69
2022/01/10 06:25:36;;;;;;;12.40;5.17;;;2.70;99.90;;;;;;4989522;28;20219;-67
2022/01/10 06:28:02;;;;;;;11.73;5.17;;;2.60;99.90;;;;;;4989070;28;20283;-70
2022/01/10 06:30:29;;;;;;;13.03;4.60;;;2.50;99.90;;;;;;4990900;28;20199;-70
2022/01/10 06:32:56;;;;;;;11.70;4.37;;;2.50;99.90;;;;;;4986430;28;20204;-70
2022/01/10 06:35:23;;;;;;;11.53;4.77;;;2.40;99.90;;;;;;4986526;28;20220;-72
2022/01/10 06:37:50;;;;;;;9.33;5.13;;;2.30;99.90;;;;;;4988050;28;20251;-71
2022/01/10 06:40:18;;;;;;;9.20;4.80;;;2.40;99.90;;;;;;4982260;28;20220;-71
2022/01/10 06:42:45;;;;;;;9.10;4.77;;;2.40;99.90;;;;;;4980009;28;20204;-71
2022/01/10 06:45:16;;;;;;;10.93;4.37;;;2.40;99.90;;;;;;4977370;28;20288;-71
2022/01/10 06:47:43;;;;;;;9.60;5.07;;;2.20;99.90;;;;;;4982226;28;20224;-72
2022/01/10 06:50:10;;;;;;;10.63;4.87;;;2.20;99.90;;;;;;4982907;28;20200;-71
2022/01/10 06:52:37;;;;;;;12.00;4.67;;;2.00;99.90;;;;;;4983440;28;20193;-71
2022/01/10 06:55:04;;;;;;;10.40;5.10;;;2.10;99.90;;;;;;4985282;28;20217;-71
2022/01/10 06:57:31;;;;;;;10.27;4.80;;;2.00;99.90;;;;;;4985354;28;20210;-71
2022/01/10 06:59:58;;;;;;;12.50;5.23;;;1.90;99.90;;;;;;4980877;28;20260;-74
2022/01/10 07:02:24;;;;;;;8.70;4.50;;;1.80;99.90;;;;;;4983937;28;20208;-71
2022/01/10 07:04:51;;;;;;;15.83;4.90;;;1.80;99.90;;;;;;4982752;28;20231;-71
2022/01/10 07:07:18;;;;;;;20.63;5.30;;;1.90;99.90;;;;;;4984110;28;20220;-73
2022/01/10 07:09:44;;;;;;;12.20;5.13;;;2.20;99.90;;;;;;4980929;28;20195;-74
2022/01/10 07:12:12;;;;;;;16.57;5.50;;;2.30;99.90;;;;;;4982609;28;20290;-71
2022/01/10 07:14:39;;;;;;;11.53;5.37;;;2.20;99.90;;;;;;4984225;28;20224;-71
2022/01/10 07:17:06;;;;;;;17.03;5.00;;;2.00;99.90;;;;;;4982889;28;20217;-71
2022/01/10 07:19:33;;;;;;;15.97;5.23;;;2.10;99.90;;;;;;4982046;28;20751;-71
2022/01/10 07:21:59;;;;;;;15.83;5.67;;;2.10;99.90;;;;;;4982545;28;20218;-72
2022/01/10 07:24:26;;;;;;;13.60;5.83;;;2.10;99.90;;;;;;4980909;28;20235;-68
2022/01/10 07:26:53;;;;;;;14.17;5.63;;;2.00;99.90;;;;;;4982236;28;20228;-69
2022/01/10 07:29:19;;;;;;;11.00;5.30;;;2.00;99.90;;;;;;4982270;28;20208;-68
2022/01/10 07:31:46;;;;;;;13.70;5.43;;;2.10;99.90;;;;;;4977464;28;20200;-70
2022/01/10 07:34:15;;;;;;;14.77;5.00;;;2.30;99.90;;;;;;4981386;28;20195;-71
2022/01/10 07:36:43;;;;;;;12.87;5.40;;;2.20;99.90;;;;;;4982693;28;20290;-71
2022/01/10 07:39:10;;;;;;;16.10;5.87;;;2.20;99.90;;;;;;4982726;28;20287;-71
2022/01/10 07:41:40;;;;;;;13.73;5.30;;;2.20;99.90;;;;;;4980666;28;20577;-70
2022/01/10 07:44:07;;;;;;;15.97;6.00;;;2.10;99.90;;;;;;4979754;28;20200;-72
2022/01/10 07:46:33;;;;;;;11.10;5.60;;;1.90;99.90;;;;;;4980744;28;20252;-70
2022/01/10 07:49:00;;;;;;;21.20;6.23;;;1.90;99.90;;;;;;4980178;28;20579;-71
2022/01/10 07:51:27;;;;;;;12.03;5.87;;;2.00;99.90;;;;;;4980693;28;20204;-69
2022/01/10 07:53:54;;;;;;;13.37;6.43;;;2.00;99.90;;;;;;4984850;28;20239;-70
2022/01/10 07:56:20;;;;;;;13.60;6.43;;;2.20;99.90;;;;;;4984747;28;20229;-69
2022/01/10 07:58:50;;;;;;;15.33;6.33;;;2.40;99.90;;;;;;4985967;28;20204;-69
2022/01/10 08:01:19;;;;;;;12.27;6.23;;;2.40;99.90;;;;;;4985157;28;20230;-70
2022/01/10 08:03:49;;;;;;;15.93;7.30;;;2.40;99.90;;;;;;4985161;28;20208;-72
2022/01/10 08:06:17;;;;;;;15.60;6.63;;;2.30;99.90;;;;;;4984421;28;20223;-75
2022/01/10 08:08:43;;;;;;;15.20;6.50;;;2.30;99.90;;;;;;4985171;28;20231;-74
2022/01/10 08:11:10;;;;;;;19.80;8.00;;;2.20;99.90;;;;;;4982553;28;20205;-74
2022/01/10 08:13:37;;;;;;;18.10;6.87;;;2.10;99.90;;;;;;4982781;28;20201;-73
2022/01/10 08:16:04;;;;;;;15.70;7.07;;;2.30;99.90;;;;;;4984975;28;20235;-69
2022/01/10 08:18:33;;;;;;;18.97;7.07;;;2.40;99.90;;;;;;4987054;28;20234;-72
2022/01/10 08:21:01;;;;;;;16.10;7.20;;;2.30;99.90;;;;;;4986380;28;20200;-72
2022/01/10 08:23:28;;;;;;;14.40;6.63;;;2.30;99.90;;;;;;4986775;28;20236;-73
2022/01/10 08:25:55;;;;;;;14.47;6.70;;;2.20;99.90;;;;;;4986711;28;20228;-72
2022/01/10 08:28:22;;;;;;;15.07;6.50;;;2.10;99.90;;;;;;4985434;28;20228;-74
2022/01/10 08:30:49;;;;;;;15.37;6.87;;;2.10;99.90;;;;;;4986924;28;20205;-73
2022/01/10 08:33:16;;;;;;;17.33;7.33;;;2.20;99.90;;;;;;4988174;28;20200;-72
2022/01/10 08:35:43;;;;;;;19.03;7.07;;;2.30;99.90;;;;;;4987407;28;20227;-72
2022/01/10 08:38:10;;;;;;;18.60;7.13;;;2.50;99.90;;;;;;4987503;28;20208;-72
2022/01/10 08:40:36;;;;;;;14.27;6.60;;;2.60;99.90;;;;;;4986165;28;20680;-73
2022/01/10 08:43:09;;;;;;;14.40;7.13;;;2.60;99.90;;;;;;4986895;28;20205;-72
2022/01/10 08:45:38;;;;;;;16.53;7.10;;;2.50;99.90;;;;;;4985458;28;20225;-71
2022/01/10 08:48:06;;;;;;;17.37;6.87;;;2.50;99.90;;;;;;4985843;28;20228;-72
2022/01/10 08:50:34;;;;;;;18.10;7.13;;;2.70;99.90;;;;;;4987080;28;20201;-74
2022/01/10 08:53:07;;;;;;;18.20;7.80;;;2.80;99.90;;;;;;4985249;28;20201;-71
2022/01/10 08:55:34;;;;;;;12.17;6.10;;;2.80;99.90;;;;;;4986742;28;20229;-75
2022/01/10 08:58:01;;;;;;;21.57;7.10;;;2.80;99.90;;;;;;4985903;28;20276;-69
2022/01/10 09:00:28;;;;;;;14.90;6.77;;;2.90;99.90;;;;;;4983117;28;20201;-72
2022/01/10 09:02:55;;;;;;;22.33;7.37;;;2.90;99.90;;;;;;4985245;28;20208;-71
2022/01/10 09:05:22;;;;;;;23.40;7.50;;;3.00;99.90;;;;;;4985286;28;20284;-73
2022/01/10 09:07:49;;;;;;;20.67;7.13;;;3.00;99.90;;;;;;4983845;28;20267;-72
2022/01/10 09:10:15;;;;;;;16.83;6.63;;;3.00;99.90;;;;;;4985397;28;20217;-71
2022/01/10 09:12:42;;;;;;;14.27;7.17;;;3.00;99.90;;;;;;4983589;28;20193;-73
2022/01/10 09:15:10;;;;;;;20.43;7.43;;;3.10;99.90;;;;;;4985135;28;20236;-72
2022/01/10 09:17:36;;;;;;;19.73;8.10;;;3.30;99.90;;;;;;4986220;28;20205;-73
2022/01/10 09:20:04;;;;;;;19.07;7.90;;;3.20;99.90;;;;;;4985935;28;20195;-73
2022/01/10 09:22:30;;;;;;;14.97;7.60;;;3.40;99.90;;;;;;4985225;28;20205;-72
2022/01/10 09:24:57;;;;;;;20.90;7.90;;;3.50;99.90;;;;;;4984513;28;21551;-72
2022/01/10 09:27:24;;;;;;;17.67;8.00;;;3.50;99.90;;;;;;4985098;28;20710;-71
2022/01/10 09:29:50;;;;;;;15.93;8.03;;;3.60;99.90;;;;;;4984900;28;20208;-74
2022/01/10 09:32:17;;;;;;;18.07;7.80;;;3.60;99.90;;;;;;4984432;28;20604;-71
2022/01/10 09:34:44;;;;;;;14.80;7.53;;;3.60;99.90;;;;;;4982715;28;20294;-72
2022/01/10 09:37:11;;;;;;;19.20;7.93;;;3.80;99.90;;;;;;4984408;28;20198;-72
2022/01/10 09:39:38;;;;;;;18.57;7.90;;;3.90;99.90;;;;;;4983601;28;20204;-74
2022/01/10 09:42:05;;;;;;;15.37;7.57;;;4.00;99.90;;;;;;4983346;28;20214;-74
2022/01/10 09:44:33;;;;;;;15.53;7.90;;;4.00;99.90;;;;;;4980058;28;20705;-72
2022/01/10 09:47:01;;;;;;;20.83;7.80;;;4.10;99.90;;;;;;4984632;28;20225;-71
2022/01/10 09:49:28;;;;;;;22.93;8.10;;;4.20;99.90;;;;;;5000594;28;20194;-72
2022/01/10 09:51:54;;;;;;;20.33;7.97;;;4.40;99.90;;;;;;4984479;28;20206;-74
2022/01/10 09:54:21;;;;;;;15.80;7.43;;;4.50;99.90;;;;;;4984495;28;20278;-73
2022/01/10 09:56:49;;;;;;;16.57;7.30;;;4.60;99.90;;;;;;4985095;28;20206;-74
2022/01/10 09:59:16;;;;;;;13.80;6.40;;;4.50;99.90;;;;;;4982890;28;20231;-72
2022/01/10 10:01:45;;;;;;;16.87;7.10;;;4.60;99.90;;;;;;4982468;28;20205;-72
2022/01/10 10:04:12;;;;;;;20.53;7.43;;;4.60;99.90;;;;;;4983830;28;20248;-72
2022/01/10 10:06:39;;;;;;;17.57;6.93;;;4.50;99.90;;;;;;4982281;28;20264;-71
2022/01/10 10:09:08;;;;;;;12.73;7.20;;;4.50;99.90;;;;;;4985116;28;20234;-75
2022/01/10 10:11:37;;;;;;;16.10;7.23;;;4.50;99.90;;;;;;4981334;28;20897;-72
2022/01/10 10:14:05;;;;;;;14.73;6.87;;;4.70;99.90;;;;;;4998704;28;20204;-70
2022/01/10 10:16:37;;;;;;;16.00;6.90;;;4.90;99.90;;;;;;4983221;28;20302;-74
2022/01/10 10:19:04;;;;;;;16.13;6.73;;;4.90;99.90;;;;;;4984396;28;20200;-73
2022/01/10 10:21:32;;;;;;;15.43;6.77;;;4.90;99.90;;;;;;4984937;28;20211;-72
2022/01/10 10:24:00;;;;;;;13.63;6.70;;;4.90;99.90;;;;;;4984684;28;20204;-71
2022/01/10 10:26:27;;;;;;;15.73;6.87;;;4.90;99.90;;;;;;4985977;28;20297;-73
2022/01/10 10:28:55;;;;;;;17.67;7.47;;;5.10;99.90;;;;;;4985067;28;20879;-72
2022/01/10 10:31:33;;;;;;;17.40;7.23;;;5.20;99.90;;;;;;4985285;28;20202;-74
2022/01/10 10:34:04;;;;;;;16.87;6.97;;;5.20;99.90;;;;;;4982254;28;20634;-73
2022/01/10 10:36:33;;;;;;;14.50;7.20;;;5.30;99.90;;;;;;4983114;28;20268;-70
2022/01/10 10:39:03;;;;;;;20.67;7.80;;;5.30;99.90;;;;;;4984839;28;20205;-73
2022/01/10 10:41:30;;;;;;;17.83;7.33;;;5.50;99.90;;;;;;4985105;28;20740;-72
2022/01/10 10:43:57;;;;;;;15.57;6.90;;;5.60;99.90;;;;;;4985416;28;20226;-73
2022/01/10 10:46:27;;;;;;;14.37;7.50;;;5.60;99.90;;;;;;4984875;28;20236;-74
2022/01/10 10:49:05;;;;;;;17.93;7.50;;;5.50;99.90;;;;;;4985127;28;20221;-73
2022/01/10 10:51:36;;;;;;;14.63;6.47;;;5.70;99.90;;;;;;4983603;28;20692;-72
2022/01/10 10:54:06;;;;;;;18.33;9.07;;;5.60;99.90;;;;;;4984276;28;20212;-72
2022/01/10 10:56:39;;;;;;;13.97;7.47;;;5.70;99.90;;;;;;4981511;28;20642;-74
2022/01/10 10:59:07;;;;;;;18.47;6.63;;;5.80;99.90;;;;;;4984215;28;20255;-73
2022/01/10 11:01:39;;;;;;;14.40;6.97;;;5.90;99.90;;;;;;4981086;28;20201;-74
2022/01/10 11:04:11;;;;;;;26.83;7.40;;;5.90;99.90;;;;;;4983199;28;20211;-73
2022/01/10 11:06:42;;;;;;;18.87;7.33;;;6.10;99.90;;;;;;4983759;28;20229;-72
2022/01/10 11:09:12;;;;;;;13.83;6.37;;;6.30;99.90;;;;;;4983360;28;20225;-72
2022/01/10 11:11:41;;;;;;;11.10;5.77;;;6.40;99.90;;;;;;4979988;28;20205;-71
2022/01/10 11:14:14;;;;;;;10.13;5.37;;;6.50;99.90;;;;;;4981980;28;20221;-71
2022/01/10 11:16:43;;;;;;;11.60;5.47;;;6.50;99.90;;;;;;4981208;28;20208;-71
2022/01/10 11:19:15;;;;;;;12.63;5.30;;;6.60;99.90;;;;;;4978656;28;20193;-70
2022/01/10 11:21:46;;;;;;;13.50;5.50;;;6.70;99.90;;;;;;4980383;28;20283;-70
2022/01/10 11:24:43;;;;;;;13.57;5.87;;;6.70;99.90;;;;;;4982801;28;20208;-69
2022/01/10 11:27:33;;;;;;;12.93;5.43;;;6.70;99.90;;;;;;4977785;28;20224;-72
2022/01/10 11:30:36;;;;;;;13.80;5.87;;;6.70;99.90;;;;;;4976954;28;20223;-73
2022/01/10 11:33:12;;;;;;;11.70;5.27;;;6.80;99.90;;;;;;4981214;28;20232;-72
2022/01/10 11:35:55;;;;;;;9.70;5.13;;;6.80;99.90;;;;;;4980458;28;20344;-73
2022/01/10 11:38:28;;;;;;;13.07;5.07;;;6.90;99.90;;;;;;4979627;28;20204;-71
2022/01/10 11:41:00;;;;;;;11.30;5.07;;;6.90;99.90;;;;;;4982125;28;20213;-72
2022/01/10 11:44:04;;;;;;;12.20;5.57;;;7.00;99.90;;;;;;4974920;28;20210;-74
2022/01/10 11:46:43;;;;;;;12.97;5.40;;;6.90;99.90;;;;;;4974182;28;20781;-72
2022/01/10 11:49:09;;;;;;;10.30;5.03;;;6.90;99.90;;;;;;4980203;28;20224;-70
2022/01/10 11:51:36;;;;;;;13.33;4.63;;;7.00;99.90;;;;;;4982172;28;20201;-71
2022/01/10 11:54:15;;;;;;;10.90;4.50;;;6.90;99.90;;;;;;4979811;28;20199;-72
2022/01/10 11:56:56;;;;;;;13.87;4.90;;;6.80;99.90;;;;;;4983458;28;20251;-74
2022/01/10 11:59:30;;;;;;;9.60;4.57;;;6.80;99.90;;;;;;4978913;28;20209;-73
2022/01/10 12:01:58;;;;;;;11.73;5.40;;;6.90;99.90;;;;;;4980270;28;20264;-75
2022/01/10 12:04:29;;;;;;;11.57;4.40;;;7.00;99.90;;;;;;4983491;28;20288;-72
2022/01/10 12:06:56;;;;;;;9.80;4.00;;;7.00;99.90;;;;;;4981953;28;20597;-71
2022/01/10 12:09:23;;;;;;;12.57;4.60;;;7.00;99.90;;;;;;4977576;28;20240;-73
2022/01/10 12:11:52;;;;;;;12.93;4.87;;;7.10;99.90;;;;;;4980474;28;21043;-72
2022/01/10 12:14:21;;;;;;;10.73;4.67;;;7.20;99.90;;;;;;4976479;28;20209;-71
2022/01/10 12:16:49;;;;;;;15.60;5.33;;;7.20;99.90;;;;;;4976523;28;20590;-71
2022/01/10 12:19:17;;;;;;;9.13;4.23;;;7.20;99.90;;;;;;4974964;28;21421;-74
2022/01/10 12:21:45;;;;;;;11.70;4.90;;;7.40;99.90;;;;;;4979973;28;20210;-72
2022/01/10 12:24:12;;;;;;;9.50;4.73;;;7.70;99.90;;;;;;4981393;28;20214;-70
2022/01/10 12:26:40;;;;;;;10.93;4.63;;;7.80;99.90;;;;;;4979396;28;20210;-74
2022/01/10 12:29:09;;;;;;;10.63;3.50;;;7.80;99.90;;;;;;4978609;28;20302;-72
2022/01/10 12:31:39;;;;;;;11.30;3.87;;;7.80;99.90;;;;;;4978200;28;20692;-70
2022/01/10 12:34:08;;;;;;;14.23;5.30;;;7.80;99.90;;;;;;4987581;28;20207;-71
2022/01/10 12:36:37;;;;;;;10.47;5.70;;;7.90;99.90;;;;;;4980290;28;20207;-70
2022/01/10 12:39:10;;;;;;;9.73;4.90;;;7.60;99.90;;;;;;4986733;28;20345;-72
2022/01/10 12:41:38;;;;;;;8.27;4.10;;;7.60;99.90;;;;;;4982716;28;20201;-72
2022/01/10 12:44:05;;;;;;;9.23;4.70;;;7.50;99.90;;;;;;4980530;28;20210;-74
2022/01/10 12:46:33;;;;;;;12.70;5.10;;;7.50;99.90;;;;;;4982625;28;20270;-73
2022/01/10 12:49:05;;;;;;;15.90;5.17;;;7.20;99.90;;;;;;4981774;28;20689;-73
2022/01/10 12:51:53;;;;;;;13.97;5.40;;;7.20;99.90;;;;;;4990847;28;20202;-70
2022/01/10 12:54:21;;;;;;;14.47;5.17;;;7.10;99.90;;;;;;4986408;28;20201;-72
2022/01/10 12:56:49;;;;;;;11.83;5.30;;;6.90;99.90;;;;;;4999196;28;20524;-71
2022/01/10 12:59:19;;;;;;;11.00;5.47;;;6.80;99.90;;;;;;4983574;28;20211;-71
2022/01/10 13:01:47;;;;;;;11.23;5.60;;;6.80;99.90;;;;;;4981810;28;20268;-74
2022/01/10 13:04:19;;;;;;;10.73;5.37;;;6.90;99.90;;;;;;4981194;28;20276;-72
2022/01/10 13:06:47;;;;;;;12.50;5.83;;;7.10;99.90;;;;;;4983799;28;20292;-72
2022/01/10 13:09:15;;;;;;;11.60;4.93;;;7.30;99.90;;;;;;4980305;28;20236;-72
2022/01/10 13:11:51;;;;;;;10.60;5.00;;;7.30;99.90;;;;;;4981841;28;20674;-73